Time;durP1;ratioP1;P1;durP2;ratioP2;P2;SDS_P1;SDS_P2;PMS_P1;PMS_P2;Temp;Humidity;BMP_temperature;BMP_pressure;BME280_temperature;BME280_humidity;BME280_pressure;Samples;Min_cycle;Max_cycle;Signal;HPM_P1;HPM_P2
2022/06/30 00:00:41;;;;;;;17.40;7.53;;;;;;;23.91;63.54;100538.84;4992477;28;20129;-76
2022/06/30 00:03:08;;;;;;;13.32;6.28;;;;;;;23.82;63.71;100539.06;4992738;28;20508;-76
2022/06/30 00:05:33;;;;;;;20.05;7.22;;;;;;;23.81;63.37;100536.53;4993197;28;20114;-77
2022/06/30 00:07:59;;;;;;;14.23;7.10;;;;;;;23.72;63.13;100535.94;4992798;28;20034;-76
2022/06/30 00:10:24;;;;;;;12.23;6.38;;;;;;;23.70;62.75;100543.50;4992618;28;20412;-74
2022/06/30 00:12:50;;;;;;;10.63;5.53;;;;;;;23.71;62.32;100534.22;4992190;28;20161;-75
2022/06/30 00:15:15;;;;;;;17.38;5.28;;;;;;;23.65;60.46;100535.06;4992253;28;20479;-75
2022/06/30 00:17:41;;;;;;;13.10;4.55;;;;;;;23.63;59.88;100536.34;4992418;28;20360;-76
2022/06/30 00:20:07;;;;;;;15.60;4.40;;;;;;;23.57;59.79;100529.81;4992187;28;20030;-75
2022/06/30 00:22:32;;;;;;;17.50;5.30;;;;;;;23.45;58.56;100520.50;4992464;28;20022;-78
2022/06/30 00:24:59;;;;;;;13.32;4.60;;;;;;;23.40;57.39;100527.66;4993079;28;20031;-79
2022/06/30 00:27:25;;;;;;;9.75;4.63;;;;;;;23.47;56.19;100532.13;4993011;28;20042;-79
2022/06/30 00:29:50;;;;;;;19.48;4.40;;;;;;;23.45;56.02;100536.13;4993161;28;20029;-79
2022/06/30 00:32:16;;;;;;;12.07;3.80;;;;;;;23.37;55.85;100531.66;4993330;28;20062;-79
2022/06/30 00:34:41;;;;;;;7.50;3.78;;;;;;;23.37;55.75;100534.41;4994313;28;20460;-77
2022/06/30 00:37:07;;;;;;;9.10;3.47;;;;;;;23.20;55.78;100514.75;4997845;28;20464;-76
2022/06/30 00:39:32;;;;;;;14.32;3.80;;;;;;;23.30;55.36;100530.81;4992722;28;20030;-79
2022/06/30 00:41:58;;;;;;;11.70;4.18;;;;;;;23.24;55.64;100520.66;4992696;28;20070;-78
2022/06/30 00:44:23;;;;;;;6.00;3.30;;;;;;;23.26;55.90;100524.06;4992667;28;20117;-78
2022/06/30 00:46:49;;;;;;;12.93;4.35;;;;;;;23.22;56.03;100533.75;4992367;28;20054;-78
2022/06/30 00:49:17;;;;;;;20.40;4.45;;;;;;;23.23;56.09;100540.94;4992345;28;20045;-78
2022/06/30 00:51:42;;;;;;;10.80;3.78;;;;;;;23.00;56.15;100513.88;4992442;28;20432;-78
2022/06/30 00:54:10;;;;;;;15.18;3.45;;;;;;;23.14;55.92;100534.81;4992950;28;20030;-79
2022/06/30 00:56:40;;;;;;;10.55;3.33;;;;;;;23.06;55.72;100517.66;4993446;28;20030;-78
2022/06/30 00:59:08;;;;;;;9.82;2.92;;;;;;;23.12;55.36;100527.81;5004722;28;20027;-78
2022/06/30 01:01:36;;;;;;;13.40;3.00;;;;;;;23.13;54.72;100529.50;5005303;28;20416;-79
2022/06/30 01:04:02;;;;;;;13.40;4.05;;;;;;;23.06;54.73;100529.50;4991594;28;20041;-78
2022/06/30 01:06:28;;;;;;;10.07;3.05;;;;;;;23.06;55.29;100536.88;4992545;28;20034;-78
2022/06/30 01:08:54;;;;;;;9.10;3.08;;;;;;;23.03;55.41;100540.03;4992298;28;20065;-79
2022/06/30 01:14:04;;;;;;;8.57;2.70;;;;;;;22.96;54.43;100536.44;4992173;28;20046;-79
2022/06/30 01:16:30;;;;;;;8.85;2.90;;;;;;;22.91;53.80;100536.22;4992789;28;20396;-79
2022/06/30 01:18:56;;;;;;;8.13;2.72;;;;;;;22.82;53.56;100526.47;4992813;28;20034;-79
2022/06/30 01:21:25;;;;;;;15.88;2.85;;;;;;;22.72;53.20;100527.72;4993133;28;20030;-80
2022/06/30 01:23:50;;;;;;;7.75;3.05;;;;;;;22.81;53.65;100530.28;4996002;28;20030;-79
2022/06/30 01:26:16;;;;;;;8.75;3.63;;;;;;;22.81;54.03;100535.78;4997176;28;20026;-79
2022/06/30 01:28:41;;;;;;;11.70;3.03;;;;;;;22.78;54.42;100532.38;4996731;28;20034;-80
2022/06/30 01:31:07;;;;;;;10.45;3.45;;;;;;;22.79;54.33;100525.00;4995447;28;20037;-79
2022/06/30 01:33:32;;;;;;;14.90;3.17;;;;;;;22.81;54.48;100530.28;4996603;28;20026;-79
2022/06/30 01:35:58;;;;;;;14.93;3.63;;;;;;;22.82;54.34;100531.97;4996073;28;20030;-79
2022/06/30 01:38:24;;;;;;;11.35;2.70;;;;;;;22.84;54.17;100529.88;4996716;28;20038;-79
2022/06/30 01:40:49;;;;;;;6.05;3.25;;;;;;;22.77;53.73;100524.38;4996848;28;20031;-79
2022/06/30 01:43:15;;;;;;;7.88;3.33;;;;;;;22.84;53.91;100532.63;4996390;28;20034;-78
2022/06/30 01:45:41;;;;;;;10.68;4.00;;;;;;;22.78;54.06;100524.16;4995954;28;20105;-78
2022/06/30 01:48:08;;;;;;;12.80;3.90;;;;;;;22.90;54.29;100542.75;4995801;28;20034;-79
2022/06/30 01:50:35;;;;;;;11.65;3.90;;;;;;;22.88;54.41;100534.72;4996114;28;20410;-79
2022/06/30 01:53:01;;;;;;;11.45;3.63;;;;;;;22.88;54.46;100528.41;4996430;28;20026;-78
2022/06/30 01:55:27;;;;;;;13.57;3.63;;;;;;;22.91;54.55;100530.72;4996310;28;20116;-78
2022/06/30 01:57:54;;;;;;;17.85;4.07;;;;;;;22.90;54.48;100529.06;4996169;28;20464;-78
2022/06/30 02:00:21;;;;;;;19.45;3.83;;;;;;;22.88;54.86;100542.09;4995526;28;20057;-78
2022/06/30 02:02:50;;;;;;;7.95;3.00;;;;;;;22.81;54.67;100530.28;4995569;28;20054;-78
2022/06/30 02:05:16;;;;;;;7.07;3.28;;;;;;;22.87;54.46;100541.28;4995807;28;20060;-78
2022/06/30 02:07:42;;;;;;;10.52;3.10;;;;;;;22.84;54.60;100529.88;4995576;28;20571;-78
2022/06/30 02:10:14;;;;;;;5.82;2.95;;;;;;;22.77;54.60;100522.47;4995866;28;20135;-79
2022/06/30 02:12:45;;;;;;;;;;;;;;;22.82;54.62;100531.97;4996230;28;20041;-78
2022/06/30 02:15:28;;;;;;;11.90;4.05;;;;;;;22.74;54.94;100525.63;4995626;28;19953;-79
2022/06/30 02:17:54;;;;;;;9.52;3.30;;;;;;;22.65;55.00;100521.38;4995352;28;20069;-79
2022/06/30 02:20:23;;;;;;;8.48;3.50;;;;;;;22.73;54.58;100537.66;4995574;28;20022;-79
2022/06/30 02:22:51;;;;;;;8.85;3.25;;;;;;;22.73;54.39;100534.91;4995602;28;20452;-79
2022/06/30 02:25:17;;;;;;;14.88;3.35;;;;;;;22.70;54.51;100524.34;4995608;28;20030;-79
2022/06/30 02:27:42;;;;;;;14.45;4.20;;;;;;;22.69;54.48;100538.25;4994953;28;20100;-78
2022/06/30 02:30:08;;;;;;;11.77;3.55;;;;;;;22.69;54.61;100555.53;4994874;28;20030;-78
2022/06/30 02:32:35;;;;;;;6.32;3.60;;;;;;;22.61;54.87;100542.00;4995438;28;20038;-78
2022/06/30 02:35:00;;;;;;;9.43;3.70;;;;;;;22.63;54.74;100555.47;4994939;28;20037;-78
2022/06/30 02:37:26;;;;;;;12.05;3.95;;;;;;;22.61;55.03;100550.22;5003156;28;20030;-78
2022/06/30 02:39:51;;;;;;;18.90;3.20;;;;;;;22.59;55.12;100549.59;5006511;28;20030;-78
2022/06/30 02:42:18;;;;;;;5.80;3.33;;;;;;;22.61;55.36;100552.97;4995519;28;20558;-78
2022/06/30 02:44:43;;;;;;;10.65;3.40;;;;;;;22.53;55.07;100546.81;4995343;28;20397;-78
2022/06/30 02:47:09;;;;;;;21.85;3.60;;;;;;;22.52;54.96;100547.84;4995332;28;20065;-79
2022/06/30 02:49:36;;;;;;;11.05;3.90;;;;;;;22.57;55.44;100551.66;4995828;28;20030;-79
2022/06/30 02:52:01;;;;;;;15.38;5.55;;;;;;;22.57;55.83;100546.19;4994950;28;20429;-79
2022/06/30 02:54:27;;;;;;;10.30;3.88;;;;;;;22.57;55.67;100545.34;4995187;28;20109;-79
2022/06/30 02:56:52;;;;;;;8.23;3.97;;;;;;;22.59;55.62;100544.09;4995200;28;20377;-77
2022/06/30 02:59:18;;;;;;;14.57;3.92;;;;;;;22.51;55.56;100541.53;4995271;28;20054;-78
2022/06/30 03:01:43;;;;;;;7.97;3.88;;;;;;;22.42;55.38;100519.97;4994840;28;20026;-78
2022/06/30 03:04:09;;;;;;;11.15;3.85;;;;;;;22.61;55.43;100542.00;4994579;28;20038;-78
2022/06/30 03:06:35;;;;;;;14.48;4.53;;;;;;;22.62;55.15;100542.84;4994597;28;20030;-78
2022/06/30 03:09:02;;;;;;;17.85;4.70;;;;;;;22.55;54.71;100534.59;4994870;28;20109;-78
2022/06/30 03:11:28;;;;;;;14.07;4.40;;;;;;;22.58;54.44;100531.44;4994257;28;20073;-78
2022/06/30 03:13:53;;;;;;;19.08;6.25;;;;;;;22.64;55.32;100540.72;4994300;28;20082;-78
2022/06/30 03:16:19;;;;;;;15.68;4.30;;;;;;;22.62;56.41;100538.22;4994130;28;20126;-77
2022/06/30 03:18:45;;;;;;;11.43;4.95;;;;;;;22.61;56.43;100542.00;4993982;28;20512;-78
2022/06/30 03:21:11;;;;;;;19.67;7.13;;;;;;;22.68;58.31;100540.16;4994080;28;20484;-78
2022/06/30 03:23:37;;;;;;;20.60;7.20;;;;;;;22.74;59.36;100554.94;4993771;28;20034;-78
2022/06/30 03:26:03;;;;;;;16.17;6.88;;;;;;;22.75;60.29;100538.28;4994452;28;20105;-83
2022/06/30 03:28:30;;;;;;;24.55;7.75;;;;;;;22.74;60.71;100539.34;4995258;28;20025;-83
2022/06/30 03:30:56;;;;;;;23.48;7.00;;;;;;;22.72;60.24;100533.19;4997127;28;20035;-87
2022/06/30 03:33:22;;;;;;;15.73;7.25;;;;;;;22.73;60.14;100528.56;4988779;28;20101;-83
2022/06/30 03:35:48;;;;;;;23.42;6.25;;;;;;;22.74;59.99;100530.28;5004565;28;20030;-88
2022/06/30 03:38:14;;;;;;;26.58;6.47;;;;;;;22.73;59.83;100534.06;4995616;28;20092;-88
2022/06/30 03:40:40;;;;;;;26.52;6.30;;;;;;;22.71;59.88;100534.28;4995493;28;20030;-83
2022/06/30 03:43:06;;;;;;;29.38;8.25;;;;;;;22.60;59.83;100510.13;4994761;28;20026;-83
2022/06/30 03:45:33;;;;;;;32.45;7.90;;;;;;;22.80;59.43;100536.81;4977797;28;20485;-88
2022/06/30 03:48:05;;;;;;;20.80;5.63;;;;;;;22.82;59.12;100538.31;4994462;28;20026;-83
2022/06/30 03:50:32;;;;;;;19.35;6.13;;;;;;;22.81;58.98;100528.41;4995037;28;20038;-82
2022/06/30 03:52:58;;;;;;;28.70;5.93;;;;;;;22.88;59.20;100536.63;4994316;28;20076;-83
2022/06/30 03:55:24;;;;;;;18.75;7.10;;;;;;;22.90;59.24;100540.03;4994301;28;20022;-85
2022/06/30 03:57:49;;;;;;;21.40;5.97;;;;;;;22.92;58.95;100538.75;4994295;28;20121;-84
2022/06/30 04:00:15;;;;;;;17.27;5.57;;;;;;;22.90;58.38;100537.28;4994251;28;20025;-83
2022/06/30 04:02:40;;;;;;;19.40;6.15;;;;;;;22.91;57.80;100545.28;4994510;28;20432;-81
2022/06/30 04:05:07;;;;;;;22.52;6.30;;;;;;;23.03;57.49;100551.84;4994564;28;20049;-86
2022/06/30 04:07:37;;;;;;;16.70;6.30;;;;;;;22.98;58.75;100540.69;4994425;28;20433;-80
2022/06/30 04:10:03;;;;;;;27.98;8.85;;;;;;;23.03;59.50;100546.38;4993834;28;20101;-76
2022/06/30 04:12:29;;;;;;;20.27;9.43;;;;;;;23.05;61.42;100558.00;4995012;28;20659;-81
2022/06/30 04:14:54;;;;;;;41.92;8.40;;;;;;;23.16;60.80;100551.03;4995952;28;20026;-79
2022/06/30 04:17:20;;;;;;;25.52;8.48;;;;;;;23.24;60.64;100559.06;5010568;28;20026;-81
2022/06/30 04:19:45;;;;;;;27.25;8.90;;;;;;;23.21;61.04;100559.50;4998792;28;20031;-83
2022/06/30 04:22:10;;;;;;;40.08;10.13;;;;;;;23.20;61.44;100547.69;4993718;28;20024;-81
2022/06/30 04:24:36;;;;;;;29.38;10.27;;;;;;;23.26;62.02;100551.50;4993222;28;20081;-79
2022/06/30 04:27:01;;;;;;;28.98;10.45;;;;;;;23.30;61.78;100556.34;4993258;28;20407;-82
2022/06/30 04:29:27;;;;;;;28.65;10.05;;;;;;;23.31;61.50;100537.97;4995078;28;20037;-79
2022/06/30 04:34:36;;;;;;;34.92;10.38;;;;;;;23.50;60.15;100548.16;4992227;28;20037;-80
2022/06/30 04:37:02;;;;;;;42.80;12.20;;;;;;;23.51;59.84;100533.41;4992510;28;20027;-80
2022/06/30 04:39:27;;;;;;;42.47;10.80;;;;;;;23.69;60.02;100561.06;4992676;28;20030;-80
2022/06/30 04:41:53;;;;;;;53.58;10.30;;;;;;;23.64;58.83;100558.09;4992629;28;20433;-80
2022/06/30 04:44:19;;;;;;;28.90;9.60;;;;;;;23.58;58.93;100547.94;4992398;28;20034;-80
2022/06/30 04:46:45;;;;;;;50.10;10.30;;;;;;;23.76;58.68;100572.88;4992439;28;20050;-79
2022/06/30 04:49:10;;;;;;;23.42;8.60;;;;;;;23.76;59.13;100572.88;4991891;28;20066;-76
2022/06/30 04:51:36;;;;;;;29.15;8.45;;;;;;;23.72;58.58;100557.91;4992488;28;20022;-80
2022/06/30 04:54:02;;;;;;;27.15;8.57;;;;;;;23.84;58.55;100572.69;4993616;28;20495;-84
2022/06/30 04:56:30;;;;;;;29.95;7.35;;;;;;;23.94;58.25;100557.66;4992965;28;20026;-81
2022/06/30 04:58:56;;;;;;;39.88;9.50;;;;;;;24.01;58.25;100555.72;4998733;28;20037;-83
2022/06/30 05:01:21;;;;;;;31.90;9.25;;;;;;;24.13;58.22;100565.03;4999644;28;20022;-86
2022/06/30 05:03:48;;;;;;;22.98;8.18;;;;;;;24.21;58.15;100571.19;4998960;28;20024;-87
2022/06/30 05:06:15;;;;;;;20.75;8.57;;;;;;;24.33;57.63;100566.72;5001997;28;20404;-84
2022/06/30 05:08:42;;;;;;;28.83;8.15;;;;;;;24.39;56.69;100562.25;5001682;28;20088;-84
2022/06/30 05:11:07;;;;;;;33.80;6.97;;;;;;;24.33;56.59;100566.72;5004487;28;20023;-84
2022/06/30 05:13:33;;;;;;;19.55;7.25;;;;;;;24.28;56.40;100546.41;4999775;28;20463;-84
2022/06/30 05:15:58;;;;;;;28.85;8.13;;;;;;;24.45;56.50;100579.78;4999218;28;20050;-83
2022/06/30 05:18:26;;;;;;;26.00;7.53;;;;;;;24.53;55.99;100583.13;4999163;28;20049;-81
2022/06/30 05:20:52;;;;;;;16.98;6.90;;;;;;;24.66;55.09;100583.09;4981951;28;20060;-82
2022/06/30 05:23:18;;;;;;;21.35;7.03;;;;;;;24.76;55.19;100582.63;4999184;28;20062;-79
2022/06/30 05:28:44;;;;;;;41.67;9.30;;;;;;;24.90;55.41;100587.03;4957162;29;20039;-78
2022/06/30 05:31:09;;;;;;;25.95;8.20;;;;;;;24.90;54.98;100574.13;4976031;28;20039;-79
2022/06/30 05:33:35;;;;;;;30.55;8.32;;;;;;;25.00;54.84;100589.31;4998222;28;20029;-79
2022/06/30 05:36:00;;;;;;;23.83;8.75;;;;;;;25.03;55.15;100594.38;4998177;28;20416;-79
2022/06/30 05:38:26;;;;;;;28.02;8.30;;;;;;;24.92;55.36;100581.31;4998068;28;20026;-79
2022/06/30 05:40:52;;;;;;;28.98;8.13;;;;;;;24.97;55.24;100581.50;4998306;28;20054;-78
2022/06/30 05:43:17;;;;;;;27.15;7.90;;;;;;;25.05;54.85;100597.75;4998227;28;20068;-78
2022/06/30 05:45:46;;;;;;;22.35;8.63;;;;;;;25.10;55.02;100590.53;4998000;28;20089;-79
2022/06/30 05:48:11;;;;;;;24.33;8.95;;;;;;;25.16;54.89;100594.31;4998666;28;20030;-79
2022/06/30 05:50:37;;;;;;;23.90;8.38;;;;;;;25.26;54.78;100600.16;4999212;28;20109;-79
2022/06/30 05:53:03;;;;;;;39.65;9.35;;;;;;;25.25;54.62;100593.00;5000458;28;20030;-81
2022/06/30 05:55:28;;;;;;;54.08;9.50;;;;;;;25.40;55.02;100601.78;5009215;28;20420;-78
2022/06/30 05:57:55;;;;;;;27.10;8.68;;;;;;;25.36;54.42;100609.66;5000144;28;20113;-76
2022/06/30 06:00:23;;;;;;;23.80;8.70;;;;;;;25.42;54.39;100599.66;4998281;28;20033;-75
2022/06/30 06:02:49;;;;;;;28.83;8.48;;;;;;;25.48;54.69;100607.03;4997601;28;20116;-79
2022/06/30 06:05:14;;;;;;;25.48;8.57;;;;;;;25.55;54.77;100605.09;4980259;28;20118;-77
2022/06/30 06:07:41;;;;;;;26.65;8.05;;;;;;;25.56;54.52;100586.69;4997998;28;20034;-78
2022/06/30 06:10:07;;;;;;;22.33;6.57;;;;;;;25.75;53.74;100600.28;4993994;28;20023;-79
2022/06/30 06:12:32;;;;;;;15.80;7.65;;;;;;;25.82;53.89;100601.09;4994861;28;20053;-81
2022/06/30 06:14:58;;;;;;;22.85;8.45;;;;;;;25.84;54.15;100598.94;4995177;28;20105;-78
2022/06/30 06:17:23;;;;;;;32.85;7.72;;;;;;;25.75;54.48;100582.91;4995637;28;20235;-80
2022/06/30 06:19:49;;;;;;;16.40;8.00;;;;;;;25.80;54.57;100605.97;4995728;28;20116;-81
2022/06/30 06:22:14;;;;;;;15.40;5.82;;;;;;;25.80;54.46;100603.22;4995151;28;20041;-78
2022/06/30 06:24:40;;;;;;;23.75;6.35;;;;;;;25.78;54.25;100616.38;4995238;28;20026;-80
2022/06/30 06:27:05;;;;;;;17.92;6.32;;;;;;;25.80;54.52;100610.66;4996731;28;20447;-77
2022/06/30 06:29:31;;;;;;;13.43;6.38;;;;;;;25.73;54.57;100599.66;4995245;28;20026;-78
2022/06/30 06:31:56;;;;;;;32.42;6.07;;;;;;;25.76;54.64;100601.97;4994797;28;20069;-76
2022/06/30 06:34:22;;;;;;;17.40;6.53;;;;;;;25.72;55.10;100599.88;4995014;28;20029;-76
2022/06/30 06:36:47;;;;;;;18.00;5.88;;;;;;;25.76;55.26;100603.88;4995120;28;20085;-77
2022/06/30 06:39:13;;;;;;;30.30;6.13;;;;;;;25.72;55.92;100589.72;4994898;28;20101;-78
2022/06/30 06:41:38;;;;;;;22.38;5.72;;;;;;;25.79;55.34;100611.69;4995112;28;20073;-79
2022/06/30 06:44:04;;;;;;;21.98;5.82;;;;;;;25.77;55.45;100600.91;4995232;28;20054;-77
2022/06/30 06:46:30;;;;;;;20.70;9.00;;;;;;;25.86;55.31;100598.72;4994053;28;20046;-77
2022/06/30 06:49:02;;;;;;;22.67;6.25;;;;;;;25.98;55.35;100595.00;4994575;28;20065;-77
2022/06/30 06:51:28;;;;;;;17.70;5.60;;;;;;;26.10;55.11;100591.50;4994215;28;20464;-75
2022/06/30 06:53:53;;;;;;;24.83;5.80;;;;;;;26.09;55.42;100585.13;4993677;28;20113;-76
2022/06/30 06:56:19;;;;;;;17.00;5.55;;;;;;;26.19;55.47;100585.50;4993205;28;20546;-75
2022/06/30 06:58:45;;;;;;;14.15;5.10;;;;;;;26.33;55.13;100588.94;4993906;28;20034;-75
2022/06/30 07:01:10;;;;;;;12.45;5.53;;;;;;;26.37;55.07;100592.94;4993488;28;20105;-76
2022/06/30 07:03:37;;;;;;;19.77;5.75;;;;;;;26.42;55.31;100596.69;4993571;28;20065;-76
2022/06/30 07:06:03;;;;;;;15.77;4.97;;;;;;;26.48;55.17;100600.47;4993358;28;20469;-75
2022/06/30 07:08:28;;;;;;;12.85;5.28;;;;;;;26.54;54.66;100605.09;4993139;28;20056;-76
2022/06/30 07:10:56;;;;;;;22.25;5.20;;;;;;;26.53;54.57;100595.09;4993914;28;20041;-76
2022/06/30 07:13:22;;;;;;;14.05;4.13;;;;;;;26.65;54.60;100593.28;4992687;28;20073;-80
2022/06/30 07:15:48;;;;;;;14.60;3.85;;;;;;;26.69;53.86;100597.25;4992703;28;20030;-80
2022/06/30 07:18:13;;;;;;;12.65;4.97;;;;;;;26.72;53.47;100596.81;4994869;28;20030;-83
2022/06/30 07:20:39;;;;;;;11.20;4.03;;;;;;;26.67;53.13;100593.88;5000733;28;20030;-80
2022/06/30 07:23:04;;;;;;;14.05;5.10;;;;;;;26.66;53.90;100603.25;4996076;28;20034;-80
2022/06/30 07:25:30;;;;;;;17.08;4.75;;;;;;;26.72;52.91;100602.31;4996234;28;20508;-78
2022/06/30 07:27:55;;;;;;;23.40;4.10;;;;;;;26.74;53.25;100597.41;4993637;28;20487;-83
2022/06/30 07:30:21;;;;;;;24.42;5.63;;;;;;;26.88;53.05;100600.88;4993854;28;20080;-77
2022/06/30 07:32:46;;;;;;;11.45;3.97;;;;;;;26.93;53.31;100610.16;4996006;28;20031;-81
2022/06/30 07:35:12;;;;;;;18.30;4.20;;;;;;;27.01;52.45;100600.69;5008121;28;20030;-77
2022/06/30 07:37:39;;;;;;;34.53;5.50;;;;;;;26.90;52.87;100588.53;4993922;28;20076;-79
2022/06/30 07:40:05;;;;;;;16.52;4.82;;;;;;;27.03;52.55;100593.84;4993717;28;20069;-76
2022/06/30 07:42:31;;;;;;;19.63;4.40;;;;;;;27.04;52.50;100616.78;4993129;28;20503;-79
2022/06/30 07:44:57;;;;;;;10.02;3.70;;;;;;;27.07;51.85;100604.44;4993867;28;20030;-76
2022/06/30 07:47:22;;;;;;;14.63;4.10;;;;;;;27.05;52.13;100601.94;4992936;28;20568;-78
2022/06/30 07:49:49;;;;;;;13.55;4.30;;;;;;;27.02;52.80;100602.38;4993040;28;20058;-79
2022/06/30 07:52:15;;;;;;;12.50;3.70;;;;;;;27.09;52.78;100596.78;4992722;28;20507;-78
2022/06/30 07:54:41;;;;;;;18.17;4.25;;;;;;;27.22;52.67;100600.19;4992788;28;20485;-78
2022/06/30 07:57:06;;;;;;;19.42;3.50;;;;;;;27.19;51.88;100597.03;4992762;28;20030;-78
2022/06/30 07:59:32;;;;;;;7.93;3.80;;;;;;;26.89;52.21;100553.72;4992715;28;20036;-79
2022/06/30 08:01:59;;;;;;;9.90;3.05;;;;;;;27.13;52.94;100600.75;4992565;28;20014;-79
2022/06/30 08:04:25;;;;;;;10.68;2.90;;;;;;;27.14;52.54;100583.09;4992599;28;20027;-79
2022/06/30 08:06:50;;;;;;;12.00;3.22;;;;;;;27.18;51.58;100585.19;4992503;28;20097;-78
2022/06/30 08:09:16;;;;;;;9.80;3.72;;;;;;;27.14;51.16;100556.34;4991326;28;20684;-78
2022/06/30 08:11:41;;;;;;;28.02;5.47;;;;;;;27.47;51.70;100600.06;4991304;28;20023;-77
2022/06/30 08:14:06;;;;;;;10.05;3.63;;;;;;;27.50;51.90;100591.31;4991145;28;20053;-79
2022/06/30 08:16:32;;;;;;;26.17;7.68;;;;;;;27.37;51.87;100566.59;4991423;28;20037;-80
2022/06/30 08:18:58;;;;;;;16.20;4.57;;;;;;;27.64;51.60;100595.56;4991192;28;20105;-78
2022/06/30 08:21:23;;;;;;;12.57;3.50;;;;;;;27.68;51.02;100594.00;4991144;28;20018;-80
2022/06/30 08:23:48;;;;;;;12.55;3.92;;;;;;;27.72;51.51;100586.91;4991939;28;20030;-79
2022/06/30 08:26:14;;;;;;;17.60;4.13;;;;;;;27.72;50.87;100580.53;4992517;28;20121;-79
2022/06/30 08:28:39;;;;;;;13.35;3.53;;;;;;;27.88;51.01;100597.28;4992574;28;20026;-79
2022/06/30 08:31:05;;;;;;;9.38;2.90;;;;;;;27.98;51.06;100589.22;4992118;28;20488;-79
2022/06/30 08:33:30;;;;;;;9.05;2.80;;;;;;;28.02;50.87;100597.88;4991736;28;20481;-79
2022/06/30 08:35:56;;;;;;;15.98;2.80;;;;;;;27.99;51.12;100599.22;4992203;28;20033;-79
2022/06/30 08:38:21;;;;;;;12.85;3.30;;;;;;;27.96;51.34;100598.84;4991984;28;20029;-78
2022/06/30 08:43:32;;;;;;;10.68;3.22;;;;;;;28.21;50.54;100602.25;4992136;28;20111;-79
2022/06/30 08:45:59;;;;;;;9.02;2.92;;;;;;;28.02;50.77;100582.13;4992683;28;20101;-79
2022/06/30 08:48:25;;;;;;;7.88;2.90;;;;;;;28.09;50.72;100601.41;4992290;28;20436;-78
2022/06/30 08:51:07;;;;;;;13.07;3.00;;;;;;;28.17;50.73;100608.50;4992686;28;20022;-79
2022/06/30 08:53:55;;;;;;;12.25;2.63;;;;;;;28.15;50.60;100603.22;4992588;28;20050;-79
2022/06/30 08:56:23;;;;;;;12.80;3.50;;;;;;;28.09;50.93;100585.66;4992624;28;20165;-79
2022/06/30 08:58:51;;;;;;;17.63;3.17;;;;;;;28.29;50.75;100599.13;4992304;28;20046;-80
2022/06/30 09:01:17;;;;;;;8.43;3.38;;;;;;;28.43;50.39;100596.97;4992068;28;20023;-79
2022/06/30 09:03:43;;;;;;;17.05;3.15;;;;;;;28.45;50.09;100598.38;4992201;28;20034;-78
2022/06/30 09:06:09;;;;;;;5.65;2.55;;;;;;;28.36;49.92;100593.47;4992196;28;20030;-79
2022/06/30 09:08:35;;;;;;;6.93;2.42;;;;;;;28.29;51.14;100609.34;4991042;28;20165;-78
2022/06/30 09:11:00;;;;;;;12.70;3.30;;;;;;;28.28;51.76;100615.97;4994551;28;20489;-78
2022/06/30 09:13:39;;;;;;;7.18;2.35;;;;;;;28.04;51.40;100580.00;5009700;28;20110;-78
2022/06/30 09:16:04;;;;;;;4.97;2.80;;;;;;;28.31;51.13;100601.66;4993607;28;20100;-78
2022/06/30 09:18:30;;;;;;;5.60;2.20;;;;;;;28.29;51.60;100598.28;4992665;28;20472;-78
2022/06/30 09:20:56;;;;;;;15.75;2.75;;;;;;;28.34;51.53;100579.88;4995871;28;20026;-78
2022/06/30 09:23:29;;;;;;;6.07;3.10;;;;;;;28.41;51.69;100588.03;4993271;28;20073;-79
2022/06/30 09:25:57;;;;;;;6.10;2.75;;;;;;;28.45;51.60;100586.47;4991995;28;20115;-79
2022/06/30 09:28:53;;;;;;;9.90;2.35;;;;;;;28.58;51.77;100594.53;4991863;28;20516;-78
2022/06/30 09:31:39;;;;;;;18.75;4.20;;;;;;;28.54;51.09;100585.88;4992186;28;20034;-80
2022/06/30 09:34:19;;;;;;;17.98;2.80;;;;;;;28.71;49.90;100605.38;4992203;28;20034;-79
2022/06/30 09:36:46;;;;;;;15.60;2.55;;;;;;;28.53;49.73;100589.69;4991849;28;20515;-78
2022/06/30 09:39:16;;;;;;;6.25;2.80;;;;;;;28.52;49.92;100587.19;4992097;28;20109;-82
2022/06/30 09:41:43;;;;;;;14.75;2.83;;;;;;;28.50;49.64;100589.38;4990319;28;20105;-79
2022/06/30 09:44:18;;;;;;;13.93;2.75;;;;;;;28.49;49.78;100598.75;4993755;28;20038;-80
2022/06/30 09:47:07;;;;;;;16.10;3.08;;;;;;;28.51;49.75;100593.81;4996067;28;20062;-79
2022/06/30 09:49:46;;;;;;;8.93;2.28;;;;;;;28.66;49.67;100596.09;4995471;28;20022;-79
2022/06/30 09:52:18;;;;;;;11.38;2.83;;;;;;;28.71;49.35;100599.84;4995579;28;20029;-78
2022/06/30 09:55:06;;;;;;;18.17;3.58;;;;;;;28.72;49.22;100592.34;4994526;28;20049;-75
2022/06/30 09:57:42;;;;;;;7.68;3.53;;;;;;;28.76;49.29;100586.09;4994591;28;20022;-77
2022/06/30 10:00:10;;;;;;;18.75;2.88;;;;;;;28.93;49.31;100600.84;4994731;28;20045;-75
2022/06/30 10:02:40;;;;;;;6.50;2.45;;;;;;;29.00;48.57;100586.84;4994290;28;20030;-75
2022/06/30 10:05:07;;;;;;;7.47;2.58;;;;;;;29.00;48.53;100584.94;4994094;28;20037;-75
2022/06/30 10:07:34;;;;;;;13.23;2.53;;;;;;;28.88;48.44;100581.34;4992998;28;20033;-76
2022/06/30 10:10:04;;;;;;;13.63;3.20;;;;;;;28.95;48.30;100581.22;4994068;28;20022;-76
2022/06/30 10:12:31;;;;;;;4.90;2.58;;;;;;;28.97;48.38;100588.19;4993906;28;20022;-76
2022/06/30 10:14:56;;;;;;;13.50;2.85;;;;;;;29.03;48.40;100576.13;4994181;28;20029;-76
2022/06/30 10:17:37;;;;;;;8.63;2.40;;;;;;;29.20;47.94;100578.97;4994287;28;20022;-76
2022/06/30 10:20:04;;;;;;;12.70;2.70;;;;;;;29.21;48.25;100571.47;4994566;28;20088;-76
2022/06/30 10:22:30;;;;;;;8.18;2.40;;;;;;;29.38;47.94;100576.00;4994142;28;20041;-75
2022/06/30 10:24:57;;;;;;;8.82;2.80;;;;;;;29.49;47.70;100577.03;4993945;28;20034;-75
2022/06/30 10:27:25;;;;;;;15.20;3.42;;;;;;;29.62;47.13;100576.72;4994112;28;20058;-76
2022/06/30 10:29:50;;;;;;;13.90;2.63;;;;;;;29.60;47.59;100573.34;4996073;28;20093;-77
2022/06/30 10:32:43;;;;;;;6.82;2.40;;;;;;;29.64;47.30;100574.50;4999903;28;20041;-77
2022/06/30 10:35:21;;;;;;;10.43;2.85;;;;;;;29.67;48.10;100569.31;4994424;28;20041;-76
2022/06/30 10:38:07;;;;;;;5.93;2.80;;;;;;;29.88;47.36;100576.06;4993790;28;20061;-76
2022/06/30 10:40:34;;;;;;;17.60;2.80;;;;;;;29.91;47.30;100575.56;4994044;28;20057;-76
2022/06/30 10:43:00;;;;;;;12.68;2.35;;;;;;;29.94;47.24;100558.41;4993679;28;20037;-76
2022/06/30 10:45:25;;;;;;;12.90;2.70;;;;;;;30.07;47.36;100569.16;4993652;28;20038;-77
2022/06/30 10:48:21;;;;;;;14.98;2.95;;;;;;;30.14;46.56;100553.19;4994227;28;20520;-76
2022/06/30 10:50:47;;;;;;;13.85;3.22;;;;;;;30.25;46.63;100565.25;5006666;28;20050;-76
2022/06/30 10:53:17;;;;;;;6.45;2.88;;;;;;;30.34;46.25;100560.09;4994368;28;20400;-77
2022/06/30 10:55:52;;;;;;;16.15;2.75;;;;;;;30.26;45.97;100566.94;4992982;28;20062;-77
2022/06/30 10:58:19;;;;;;;14.68;3.20;;;;;;;30.28;45.94;100547.25;4993324;28;20531;-76
2022/06/30 11:00:47;;;;;;;15.35;3.22;;;;;;;30.40;45.69;100557.19;4993341;28;20495;-76
2022/06/30 11:03:34;;;;;;;13.70;2.72;;;;;;;30.42;44.78;100563.34;4993581;28;20098;-76
2022/06/30 11:06:09;;;;;;;14.55;2.65;;;;;;;30.37;44.59;100562.38;4993288;28;20037;-75
2022/06/30 11:08:47;;;;;;;9.23;2.33;;;;;;;30.41;44.58;100552.47;4993425;28;20042;-75
2022/06/30 11:11:22;;;;;;;13.68;2.40;;;;;;;30.27;44.96;100551.16;4993313;28;20058;-75
2022/06/30 11:14:02;;;;;;;14.88;3.13;;;;;;;30.32;44.79;100548.44;4993467;28;20038;-76
2022/06/30 11:16:29;;;;;;;13.57;2.97;;;;;;;30.42;45.14;100548.63;4993451;28;20033;-75
2022/06/30 11:18:58;;;;;;;16.52;3.15;;;;;;;30.37;43.89;100538.22;4993356;28;20052;-76
2022/06/30 11:21:24;;;;;;;15.30;3.75;;;;;;;30.28;43.94;100541.69;4992973;28;20113;-75
2022/06/30 11:23:55;;;;;;;5.22;2.50;;;;;;;30.18;44.37;100551.56;4993225;28;20105;-76
2022/06/30 11:29:13;;;;;;;9.43;2.10;;;;;;;30.37;42.98;100551.25;4992894;28;20092;-75
2022/06/30 11:31:58;;;;;;;;;;;;;;;30.36;43.29;100546.84;4993518;28;20030;-75
2022/06/30 11:34:27;;;;;;;9.70;2.15;;;;;;;30.28;43.14;100547.25;4992643;28;19910;-75